Time;durP1;ratioP1;P1;durP2;ratioP2;P2;SDS_P1;SDS_P2;PMS_P1;PMS_P2;Temp;Humidity;BMP_temperature;BMP_pressure;BME280_temperature;BME280_humidity;BME280_pressure;Samples;Min_cycle;Max_cycle;Signal;HPM_P1;HPM_P2
2021/09/17 00:00:18;;;;;;;15.73;11.10;;;24.00;99.90;;;;;;5075111;28;20501;-67
2021/09/17 00:02:46;;;;;;;15.00;11.60;;;23.90;99.90;;;;;;5076115;28;20045;-67
2021/09/17 00:05:14;;;;;;;15.13;11.05;;;23.90;99.90;;;;;;5074748;28;20041;-67
2021/09/17 00:07:42;;;;;;;16.30;10.30;;;23.90;99.90;;;;;;5074212;28;20048;-67
2021/09/17 00:10:10;;;;;;;13.80;10.25;;;23.90;99.90;;;;;;5074730;28;20072;-67
2021/09/17 00:12:38;;;;;;;17.45;9.88;;;23.90;99.90;;;;;;5058511;28;20045;-67
2021/09/17 00:15:07;;;;;;;14.10;9.38;;;24.00;99.90;;;;;;5075965;28;20048;-67
2021/09/17 00:17:35;;;;;;;17.35;11.10;;;23.90;99.90;;;;;;5075973;28;20091;-67
2021/09/17 00:20:05;;;;;;;14.23;9.95;;;23.90;99.90;;;;;;5074841;28;20040;-67
2021/09/17 00:22:32;;;;;;;17.98;10.35;;;23.90;99.90;;;;;;5071960;28;20048;-67
2021/09/17 00:25:00;;;;;;;15.70;10.45;;;23.90;99.90;;;;;;5072383;28;20055;-67
2021/09/17 00:27:28;;;;;;;15.07;11.23;;;23.90;99.90;;;;;;5072149;28;20044;-67
2021/09/17 00:29:56;;;;;;;16.92;11.30;;;23.90;99.90;;;;;;5072244;28;20540;-67
2021/09/17 00:32:23;;;;;;;17.15;11.65;;;23.90;99.90;;;;;;5072059;28;20045;-67
2021/09/17 00:34:52;;;;;;;15.52;11.25;;;23.80;99.90;;;;;;5072521;28;20057;-67
2021/09/17 00:37:19;;;;;;;23.48;10.40;;;23.80;99.90;;;;;;5057701;28;20044;-67
2021/09/17 00:39:47;;;;;;;16.52;11.98;;;23.80;99.90;;;;;;5075392;28;20434;-67
2021/09/17 00:42:15;;;;;;;18.50;11.43;;;23.80;99.90;;;;;;5074225;28;20044;-67
2021/09/17 00:44:42;;;;;;;16.45;11.18;;;23.80;99.90;;;;;;5075443;28;20547;-67
2021/09/17 00:47:10;;;;;;;19.92;11.40;;;23.80;99.90;;;;;;5075399;28;20044;-67
2021/09/17 00:49:38;;;;;;;17.30;11.55;;;23.80;99.90;;;;;;5075219;28;20123;-67
2021/09/17 00:52:06;;;;;;;14.68;11.10;;;23.80;99.90;;;;;;5075633;28;20043;-67
2021/09/17 00:54:34;;;;;;;20.08;12.15;;;23.80;99.90;;;;;;5075299;28;20045;-67
2021/09/17 00:57:05;;;;;;;15.50;11.15;;;23.80;99.90;;;;;;5075025;28;20045;-67
2021/09/17 00:59:32;;;;;;;16.80;11.32;;;23.80;99.90;;;;;;5057297;28;20052;-67
2021/09/17 01:02:00;;;;;;;15.10;10.65;;;23.90;99.90;;;;;;5073649;28;20497;-67
2021/09/17 01:04:28;;;;;;;17.77;10.73;;;23.90;99.90;;;;;;5040562;28;20429;-67
2021/09/17 01:06:56;;;;;;;17.40;11.88;;;23.80;99.90;;;;;;5073913;28;20045;-67
2021/09/17 01:09:24;;;;;;;14.32;11.43;;;23.80;99.90;;;;;;5075040;28;20071;-67
2021/09/17 01:11:52;;;;;;;21.13;10.73;;;23.70;99.90;;;;;;5073565;28;20040;-67
2021/09/17 01:14:20;;;;;;;18.27;11.52;;;23.70;99.90;;;;;;5073676;28;20371;-67
2021/09/17 01:16:48;;;;;;;18.20;10.70;;;23.60;99.90;;;;;;5056596;28;20515;-67
2021/09/17 01:19:15;;;;;;;17.65;11.55;;;23.70;99.90;;;;;;5073536;28;20051;-67
2021/09/17 01:21:43;;;;;;;17.60;11.15;;;23.70;99.90;;;;;;5073536;28;20051;-67
2021/09/17 01:24:11;;;;;;;21.40;13.00;;;23.60;99.90;;;;;;5074582;28;20044;-67
2021/09/17 01:26:38;;;;;;;22.45;11.80;;;23.60;99.90;;;;;;5056771;28;20045;-67
2021/09/17 01:29:06;;;;;;;17.48;12.02;;;23.50;99.90;;;;;;5073283;28;20123;-67
2021/09/17 01:31:33;;;;;;;16.85;12.32;;;23.50;99.90;;;;;;5074377;28;20044;-67
2021/09/17 01:34:09;;;;;;;17.60;12.13;;;23.50;99.90;;;;;;5072920;28;20379;-67
2021/09/17 01:36:36;;;;;;;20.48;12.43;;;23.50;99.90;;;;;;5073161;28;20036;-67
2021/09/17 01:39:04;;;;;;;22.83;12.65;;;23.60;99.90;;;;;;5073172;28;20045;-67
2021/09/17 01:41:32;;;;;;;15.65;11.73;;;23.60;99.90;;;;;;5073002;28;20051;-67
2021/09/17 01:44:00;;;;;;;15.02;11.45;;;23.60;99.90;;;;;;5072414;28;20036;-67
2021/09/17 01:46:27;;;;;;;17.25;11.48;;;23.60;99.90;;;;;;5073078;28;20040;-67
2021/09/17 01:48:55;;;;;;;16.77;11.77;;;23.60;99.90;;;;;;5056322;28;20094;-67
2021/09/17 01:51:23;;;;;;;15.27;11.32;;;23.60;99.90;;;;;;5072787;28;20576;-67
2021/09/17 01:53:50;;;;;;;16.98;10.93;;;23.60;99.90;;;;;;5072798;28;20174;-67
2021/09/17 01:56:20;;;;;;;14.82;11.13;;;23.70;99.90;;;;;;5073802;28;20360;-67
2021/09/17 01:58:48;;;;;;;18.15;11.20;;;23.70;99.90;;;;;;5073117;28;20047;-67
2021/09/17 02:01:16;;;;;;;17.13;11.00;;;23.60;99.90;;;;;;5074071;28;20444;-67
2021/09/17 02:03:45;;;;;;;15.80;10.30;;;23.60;99.90;;;;;;5074017;28;20041;-67
2021/09/17 02:06:25;;;;;;;14.00;10.13;;;23.70;99.90;;;;;;5056073;28;20119;-67
2021/09/17 02:08:53;;;;;;;19.75;9.85;;;23.70;99.90;;;;;;5072525;28;20102;-67
2021/09/17 02:11:21;;;;;;;16.63;11.77;;;23.70;99.90;;;;;;5072615;28;20076;-67
2021/09/17 02:13:49;;;;;;;14.27;10.10;;;23.70;99.90;;;;;;5074027;28;20040;-67
2021/09/17 02:16:16;;;;;;;13.50;10.25;;;23.70;99.90;;;;;;5072483;28;20147;-67
2021/09/17 02:18:44;;;;;;;13.75;10.38;;;23.80;99.90;;;;;;5055862;28;20042;-67
2021/09/17 02:21:19;;;;;;;16.23;11.95;;;23.80;99.90;;;;;;5073627;28;20048;-67
2021/09/17 02:23:47;;;;;;;13.47;10.90;;;23.80;99.90;;;;;;5073907;28;20047;-67
2021/09/17 02:26:17;;;;;;;12.73;9.88;;;23.90;99.90;;;;;;5055912;28;20048;-67
2021/09/17 02:28:44;;;;;;;16.20;10.68;;;23.90;99.90;;;;;;5073693;28;20037;-67
2021/09/17 02:31:12;;;;;;;15.32;9.82;;;23.80;99.90;;;;;;5072241;28;20047;-67
2021/09/17 02:33:40;;;;;;;18.17;10.73;;;23.80;99.90;;;;;;5072079;28;20052;-67
2021/09/17 02:36:08;;;;;;;13.80;10.80;;;23.80;99.90;;;;;;5073407;28;20132;-67
2021/09/17 02:38:36;;;;;;;16.95;9.98;;;23.70;99.90;;;;;;5055600;28;20498;-67
2021/09/17 02:41:04;;;;;;;15.23;10.43;;;23.70;99.90;;;;;;5072333;28;20131;-67
2021/09/17 02:43:31;;;;;;;14.05;10.05;;;23.80;99.90;;;;;;5073785;28;20045;-67
2021/09/17 02:45:59;;;;;;;18.52;11.27;;;23.80;99.90;;;;;;5072407;28;20062;-67
2021/09/17 02:48:28;;;;;;;17.60;11.60;;;23.90;99.90;;;;;;5055412;28;20040;-67
2021/09/17 02:50:56;;;;;;;15.98;10.52;;;23.90;99.90;;;;;;5072268;28;20046;-67
2021/09/17 02:53:24;;;;;;;14.40;10.45;;;24.00;99.90;;;;;;5072442;28;20041;-67
2021/09/17 02:55:51;;;;;;;14.70;10.93;;;24.00;99.90;;;;;;5074432;28;20044;-67
2021/09/17 02:58:19;;;;;;;17.15;11.65;;;24.00;99.90;;;;;;5077406;28;20045;-67
2021/09/17 03:00:49;;;;;;;13.77;10.10;;;24.00;99.90;;;;;;5077233;28;20151;-67
2021/09/17 03:03:17;;;;;;;13.27;9.95;;;24.00;99.90;;;;;;5077092;28;20057;-67
2021/09/17 03:05:45;;;;;;;14.52;10.73;;;24.00;99.90;;;;;;5077468;28;20051;-67
2021/09/17 03:08:13;;;;;;;12.23;9.48;;;24.00;99.90;;;;;;5076177;28;20037;-67
2021/09/17 03:10:40;;;;;;;16.35;10.50;;;24.00;99.90;;;;;;5077133;28;20048;-67
2021/09/17 03:13:08;;;;;;;14.27;10.48;;;23.90;99.90;;;;;;5075778;28;20048;-67
2021/09/17 03:15:36;;;;;;;19.90;10.50;;;23.90;99.90;;;;;;5075491;28;20127;-67
2021/09/17 03:18:04;;;;;;;15.48;10.85;;;23.90;99.90;;;;;;5059427;28;20127;-67
2021/09/17 03:20:31;;;;;;;14.25;10.75;;;24.00;99.90;;;;;;5076055;28;20048;-67
2021/09/17 03:23:00;;;;;;;15.80;10.40;;;24.00;99.90;;;;;;5075524;28;20042;-67
2021/09/17 03:25:28;;;;;;;22.13;10.13;;;24.00;99.90;;;;;;5075730;28;20052;-67
2021/09/17 03:27:56;;;;;;;17.13;10.88;;;24.10;99.90;;;;;;5075505;28;20048;-67
2021/09/17 03:30:23;;;;;;;13.27;9.95;;;24.10;99.90;;;;;;5075719;28;20128;-67
2021/09/17 03:32:51;;;;;;;12.85;10.25;;;24.10;99.90;;;;;;5058967;28;20063;-67
2021/09/17 03:35:21;;;;;;;15.15;9.60;;;24.10;99.90;;;;;;5075021;28;20052;-67
2021/09/17 03:37:49;;;;;;;14.60;8.98;;;24.00;99.90;;;;;;5076570;28;20151;-67
2021/09/17 03:40:17;;;;;;;14.10;10.00;;;24.00;99.90;;;;;;5076431;28;20043;-67
2021/09/17 03:42:44;;;;;;;12.68;10.02;;;24.00;99.90;;;;;;5076435;28;20075;-67
2021/09/17 03:45:12;;;;;;;16.27;11.88;;;23.90;99.90;;;;;;5075236;28;20106;-67
2021/09/17 03:47:40;;;;;;;19.58;11.07;;;23.90;99.90;;;;;;5058858;28;20051;-67
2021/09/17 03:50:08;;;;;;;14.60;10.85;;;23.80;99.90;;;;;;5076460;28;20040;-67
2021/09/17 03:52:36;;;;;;;14.23;10.05;;;23.80;99.90;;;;;;5076907;28;20044;-67
2021/09/17 03:55:04;;;;;;;12.68;9.73;;;23.80;99.90;;;;;;5074865;28;20154;-67
2021/09/17 03:57:31;;;;;;;17.10;10.50;;;23.90;99.90;;;;;;5076399;28;20041;-67
2021/09/17 03:59:59;;;;;;;14.95;11.20;;;23.90;99.90;;;;;;5076620;28;20381;-67
2021/09/17 04:02:27;;;;;;;13.88;9.13;;;23.90;99.90;;;;;;5058562;28;20386;-67
2021/09/17 04:04:54;;;;;;;13.90;9.07;;;24.00;99.90;;;;;;5076231;28;20072;-67
2021/09/17 04:07:22;;;;;;;16.23;9.80;;;24.00;99.90;;;;;;5075646;28;20106;-67
2021/09/17 04:09:50;;;;;;;19.70;10.77;;;24.10;99.90;;;;;;5058123;28;20521;-67
2021/09/17 04:12:17;;;;;;;15.70;10.55;;;24.10;99.90;;;;;;5058236;28;20055;-67
2021/09/17 04:14:46;;;;;;;14.82;10.55;;;24.00;99.90;;;;;;5076050;28;20086;-67
2021/09/17 04:17:13;;;;;;;18.52;10.95;;;23.90;99.90;;;;;;5074729;28;20067;-67
2021/09/17 04:19:41;;;;;;;15.90;10.48;;;23.70;99.90;;;;;;5074922;28;20047;-67
2021/09/17 04:22:10;;;;;;;14.00;9.68;;;23.60;99.90;;;;;;5074345;28;20497;-67
2021/09/17 04:24:38;;;;;;;18.20;10.18;;;23.60;99.90;;;;;;5076035;28;20098;-67
2021/09/17 04:27:05;;;;;;;16.23;9.52;;;23.60;99.90;;;;;;5075847;28;20052;-67
2021/09/17 04:29:34;;;;;;;17.35;10.45;;;23.70;99.90;;;;;;5074491;28;20087;-67
2021/09/17 04:32:02;;;;;;;18.15;10.35;;;23.80;99.90;;;;;;5075686;28;20064;-67
2021/09/17 04:34:29;;;;;;;16.77;11.40;;;23.80;99.90;;;;;;5075341;28;20048;-67
2021/09/17 04:36:57;;;;;;;18.48;10.50;;;23.80;99.90;;;;;;5074187;28;20051;-67
2021/09/17 04:39:25;;;;;;;17.40;9.70;;;23.80;99.90;;;;;;5074318;28;20135;-67
2021/09/17 04:41:52;;;;;;;20.48;10.80;;;23.80;99.90;;;;;;5074400;28;20202;-67
2021/09/17 04:44:20;;;;;;;18.33;9.85;;;23.80;99.90;;;;;;5073994;28;20048;-67
2021/09/17 04:46:48;;;;;;;14.05;9.75;;;23.80;99.90;;;;;;5074286;28;20055;-67
2021/09/17 04:49:15;;;;;;;15.27;10.57;;;23.80;99.90;;;;;;5073998;28;20032;-67
2021/09/17 04:51:43;;;;;;;14.73;10.18;;;23.80;99.90;;;;;;5074293;28;20032;-67
2021/09/17 04:54:12;;;;;;;15.70;10.45;;;23.80;99.90;;;;;;5075255;28;20565;-67
2021/09/17 04:56:41;;;;;;;14.10;9.43;;;23.80;99.90;;;;;;5057759;28;20044;-67
2021/09/17 04:59:09;;;;;;;22.88;11.82;;;23.80;99.90;;;;;;5075110;28;20052;-67
2021/09/17 05:01:38;;;;;;;19.33;12.35;;;23.80;99.90;;;;;;5073809;28;20485;-67
2021/09/17 05:04:05;;;;;;;15.55;12.00;;;23.70;99.90;;;;;;5073636;28;20037;-67
2021/09/17 05:06:33;;;;;;;17.83;11.80;;;23.60;99.90;;;;;;5075256;28;20135;-67
2021/09/17 05:09:01;;;;;;;20.77;12.25;;;23.50;99.90;;;;;;5074931;28;20053;-67
2021/09/17 05:11:29;;;;;;;14.18;10.57;;;23.50;99.90;;;;;;5073690;28;20094;-67
2021/09/17 05:13:56;;;;;;;17.85;11.88;;;23.60;99.90;;;;;;5074827;28;20433;-67
2021/09/17 05:16:24;;;;;;;21.35;12.23;;;23.60;99.90;;;;;;5074434;28;20389;-67
2021/09/17 05:18:52;;;;;;;16.40;12.35;;;23.70;99.90;;;;;;5073762;28;20509;-67
2021/09/17 05:21:19;;;;;;;17.08;12.20;;;23.80;99.90;;;;;;5074721;28;20072;-67
2021/09/17 05:23:47;;;;;;;26.13;12.40;;;24.00;99.90;;;;;;5074647;28;20036;-67
2021/09/17 05:26:15;;;;;;;16.67;11.45;;;24.00;99.90;;;;;;5074556;28;20405;-67
2021/09/17 05:28:43;;;;;;;15.27;10.07;;;24.20;99.90;;;;;;5074337;28;20048;-67
2021/09/17 05:31:11;;;;;;;19.02;11.98;;;24.20;99.90;;;;;;5074383;28;20041;-67
2021/09/17 05:33:39;;;;;;;18.48;10.50;;;24.20;99.90;;;;;;5073146;28;20371;-67
2021/09/17 05:36:07;;;;;;;21.90;10.65;;;24.30;99.90;;;;;;5074541;28;20131;-67
2021/09/17 05:38:34;;;;;;;18.98;11.48;;;24.40;99.90;;;;;;5074330;28;20051;-67
2021/09/17 05:41:02;;;;;;;17.42;10.57;;;24.40;99.90;;;;;;5072986;28;20063;-67
2021/09/17 05:43:30;;;;;;;17.00;11.00;;;24.50;99.90;;;;;;5072978;28;20044;-67
2021/09/17 05:45:57;;;;;;;21.73;11.38;;;24.70;99.90;;;;;;5073058;28;20078;-67
2021/09/17 05:48:25;;;;;;;15.60;10.98;;;24.80;99.90;;;;;;5074231;28;20045;-67
2021/09/17 05:50:53;;;;;;;19.63;10.98;;;24.80;99.90;;;;;;5074188;28;20040;-67
2021/09/17 05:53:20;;;;;;;19.00;11.60;;;24.80;99.90;;;;;;5074122;28;20032;-67
2021/09/17 05:55:48;;;;;;;20.27;10.55;;;24.90;99.90;;;;;;5039609;28;20143;-67
2021/09/17 05:58:16;;;;;;;15.50;11.38;;;24.80;99.90;;;;;;5072275;28;20497;-67
2021/09/17 06:00:43;;;;;;;17.40;10.70;;;24.90;99.90;;;;;;5056159;28;20045;-67
2021/09/17 06:03:11;;;;;;;16.27;10.30;;;24.90;99.90;;;;;;5073977;28;20070;-67
2021/09/17 06:05:38;;;;;;;16.45;9.73;;;25.10;99.90;;;;;;5073698;28;20075;-67
2021/09/17 06:08:06;;;;;;;15.50;8.63;;;25.10;99.90;;;;;;5055843;28;20397;-67
2021/09/17 06:10:34;;;;;;;14.75;9.00;;;25.10;99.90;;;;;;5072433;28;20044;-67
2021/09/17 06:13:02;;;;;;;13.35;8.90;;;25.20;99.90;;;;;;5039505;28;20127;-67
2021/09/17 06:15:29;;;;;;;15.00;9.88;;;25.10;99.90;;;;;;5073871;28;20056;-67
2021/09/17 06:17:57;;;;;;;17.38;10.45;;;25.00;99.90;;;;;;5072408;28;20052;-67
2021/09/17 06:20:24;;;;;;;13.93;9.75;;;25.00;99.90;;;;;;5073678;28;20131;-67
2021/09/17 06:22:55;;;;;;;12.02;8.27;;;24.90;99.90;;;;;;5073558;28;20040;-67
2021/09/17 06:25:23;;;;;;;13.23;9.60;;;24.80;99.90;;;;;;5072917;28;20085;-67
2021/09/17 06:27:51;;;;;;;16.00;8.85;;;24.80;99.90;;;;;;5073817;28;20063;-67
2021/09/17 06:30:20;;;;;;;10.40;7.45;;;24.80;99.90;;;;;;5072335;28;20128;-65
2021/09/17 06:32:48;;;;;;;14.15;7.93;;;24.80;99.90;;;;;;5055728;28;20047;-67
2021/09/17 06:35:16;;;;;;;11.55;7.57;;;24.80;99.90;;;;;;5073641;28;20071;-67
2021/09/17 06:37:49;;;;;;;17.92;9.00;;;24.80;99.90;;;;;;5073403;28;20070;-67
2021/09/17 06:40:18;;;;;;;11.95;8.40;;;24.80;99.90;;;;;;5073633;28;20501;-67
2021/09/17 06:42:47;;;;;;;14.43;7.72;;;25.10;99.90;;;;;;5072241;28;20043;-67
2021/09/17 06:45:15;;;;;;;13.45;8.02;;;25.30;99.90;;;;;;5072295;28;20599;-67
2021/09/17 06:47:44;;;;;;;17.00;9.00;;;25.50;99.90;;;;;;5073492;28;20055;-67
2021/09/17 06:50:12;;;;;;;11.30;7.68;;;25.70;99.90;;;;;;5072071;28;20072;-67
2021/09/17 06:52:47;;;;;;;9.82;6.90;;;26.00;99.90;;;;;;5072251;28;20052;-67
2021/09/17 06:55:15;;;;;;;9.70;6.85;;;26.20;99.90;;;;;;5073490;28;20063;-67
2021/09/17 06:57:48;;;;;;;9.25;7.00;;;26.10;99.90;;;;;;5072213;28;20040;-67
2021/09/17 07:00:18;;;;;;;17.20;8.85;;;26.20;99.90;;;;;;5055475;28;20040;-67
2021/09/17 07:02:46;;;;;;;12.65;7.90;;;26.10;99.90;;;;;;5073232;28;20410;-67
2021/09/17 07:05:14;;;;;;;10.85;7.13;;;26.00;99.90;;;;;;5055436;28;20053;-67
2021/09/17 07:07:42;;;;;;;10.85;6.95;;;26.00;99.90;;;;;;5073082;28;20394;-67
2021/09/17 07:10:11;;;;;;;10.80;7.13;;;25.90;99.90;;;;;;5072039;28;20051;-68
2021/09/17 07:12:39;;;;;;;11.27;7.55;;;26.00;99.90;;;;;;5073172;28;20386;-67
2021/09/17 07:15:07;;;;;;;14.85;7.43;;;26.10;99.90;;;;;;5073167;28;20041;-67
2021/09/17 07:17:35;;;;;;;13.20;7.03;;;26.10;99.90;;;;;;5071924;28;20075;-67
2021/09/17 07:20:03;;;;;;;14.25;7.88;;;26.20;99.90;;;;;;5055632;28;20123;-67
2021/09/17 07:22:31;;;;;;;9.77;6.82;;;26.30;99.90;;;;;;5071827;28;20079;-67
2021/09/17 07:24:59;;;;;;;12.55;6.18;;;26.30;99.90;;;;;;5072932;28;20048;-67
2021/09/17 07:27:26;;;;;;;10.43;6.68;;;26.30;99.90;;;;;;5054981;28;20044;-67
2021/09/17 07:29:54;;;;;;;9.23;6.40;;;26.40;99.90;;;;;;5073220;28;20055;-67
2021/09/17 07:32:22;;;;;;;9.93;6.95;;;26.60;99.90;;;;;;5073241;28;20127;-67
2021/09/17 07:34:49;;;;;;;8.90;6.00;;;26.60;99.90;;;;;;5072880;28;20502;-67
2021/09/17 07:37:17;;;;;;;6.97;6.07;;;26.70;99.90;;;;;;5071831;28;20095;-67
2021/09/17 07:39:45;;;;;;;10.80;6.93;;;27.00;99.90;;;;;;5073002;28;20044;-67
2021/09/17 07:42:12;;;;;;;9.77;6.63;;;27.20;99.90;;;;;;5074351;28;20047;-67
2021/09/17 07:44:40;;;;;;;12.98;6.30;;;27.20;99.90;;;;;;5075561;28;20145;-67
2021/09/17 07:47:08;;;;;;;8.48;5.82;;;27.40;99.90;;;;;;5076604;28;20068;-67
2021/09/17 07:49:36;;;;;;;8.30;5.78;;;27.40;99.90;;;;;;5075434;28;20048;-67
2021/09/17 07:52:04;;;;;;;19.00;6.80;;;27.10;99.90;;;;;;5075052;28;20448;-67
2021/09/17 07:54:32;;;;;;;8.30;6.00;;;27.10;99.90;;;;;;5076293;28;20127;-67
2021/09/17 07:56:59;;;;;;;10.25;6.22;;;27.00;99.90;;;;;;5074770;28;20437;-67
2021/09/17 07:59:27;;;;;;;11.65;6.68;;;27.00;99.90;;;;;;5076359;28;20120;-67
2021/09/17 08:01:54;;;;;;;7.60;5.60;;;27.00;99.90;;;;;;5076334;28;20048;-67
2021/09/17 08:04:22;;;;;;;13.35;5.63;;;27.00;99.90;;;;;;5076293;28;20047;-67
2021/09/17 08:06:50;;;;;;;9.50;5.20;;;26.90;99.90;;;;;;5075055;28;20044;-66
2021/09/17 08:09:17;;;;;;;11.70;6.60;;;26.80;99.90;;;;;;5074736;28;20051;-72
2021/09/17 08:11:45;;;;;;;11.25;6.63;;;26.80;99.90;;;;;;5076297;28;20389;-71
2021/09/17 08:14:13;;;;;;;11.82;6.22;;;26.90;99.90;;;;;;5076168;28;20131;-71
2021/09/17 08:16:40;;;;;;;14.32;6.53;;;26.90;99.90;;;;;;5076052;28;20048;-71
2021/09/17 08:19:08;;;;;;;12.75;6.38;;;26.70;99.90;;;;;;5074697;28;20375;-72
2021/09/17 08:21:41;;;;;;;11.30;7.38;;;26.70;99.90;;;;;;5075813;28;20131;-71
2021/09/17 08:24:14;;;;;;;19.73;6.68;;;26.70;99.90;;;;;;5074611;28;20194;-71
2021/09/17 08:26:47;;;;;;;9.10;6.72;;;26.90;99.90;;;;;;5076097;28;20076;-72
2021/09/17 08:29:16;;;;;;;11.05;6.32;;;27.10;99.90;;;;;;5074735;28;20094;-72
2021/09/17 08:31:59;;;;;;;13.57;7.00;;;27.30;99.90;;;;;;5075781;28;20494;-72
2021/09/17 08:34:48;;;;;;;8.75;6.65;;;27.40;99.90;;;;;;5074404;28;20056;-72
2021/09/17 08:37:35;;;;;;;10.80;6.82;;;27.20;99.90;;;;;;5060632;28;20040;-72
2021/09/17 08:40:27;;;;;;;13.52;7.07;;;27.20;99.90;;;;;;5074504;28;20055;-73
2021/09/17 08:43:00;;;;;;;8.57;5.53;;;27.10;99.90;;;;;;5074090;28;20505;-72
2021/09/17 08:45:28;;;;;;;11.77;6.28;;;27.00;99.90;;;;;;5074218;28;20223;-74
2021/09/17 08:47:59;;;;;;;10.80;6.35;;;26.80;99.90;;;;;;5075234;28;20573;-71
2021/09/17 08:50:30;;;;;;;10.52;5.78;;;26.90;99.90;;;;;;5074088;28;20176;-72
2021/09/17 08:52:59;;;;;;;15.82;6.55;;;26.90;99.90;;;;;;5075112;28;20052;-70
2021/09/17 08:55:27;;;;;;;10.20;7.13;;;27.10;99.90;;;;;;5073999;28;20047;-71
2021/09/17 08:57:54;;;;;;;7.63;6.22;;;27.30;99.90;;;;;;5073960;28;20055;-72
2021/09/17 09:00:31;;;;;;;9.73;6.15;;;27.50;99.90;;;;;;5073132;28;20045;-72
2021/09/17 09:02:59;;;;;;;14.02;6.75;;;27.50;99.90;;;;;;5056397;28;20076;-72
2021/09/17 09:05:28;;;;;;;9.93;5.95;;;27.50;99.90;;;;;;5056513;28;20060;-72
2021/09/17 09:07:56;;;;;;;13.20;6.53;;;27.50;99.90;;;;;;5073621;28;20079;-73
2021/09/17 09:10:24;;;;;;;13.05;7.28;;;27.60;99.90;;;;;;5073618;28;20083;-71
2021/09/17 09:12:59;;;;;;;9.48;5.88;;;27.50;99.90;;;;;;5074877;28;20051;-71
2021/09/17 09:15:32;;;;;;;15.20;6.93;;;27.50;99.90;;;;;;5074969;28;20090;-71
2021/09/17 09:18:09;;;;;;;8.85;6.50;;;27.70;99.90;;;;;;5074481;28;20051;-71
2021/09/17 09:20:40;;;;;;;10.32;6.82;;;27.70;99.90;;;;;;5073529;28;20394;-73
2021/09/17 09:23:13;;;;;;;8.85;6.45;;;27.70;99.90;;;;;;5073152;28;20076;-74
2021/09/17 09:25:50;;;;;;;10.70;6.30;;;27.60;99.90;;;;;;5074686;28;20124;-70
2021/09/17 09:28:21;;;;;;;10.48;6.82;;;27.50;99.90;;;;;;5073173;28;20067;-72
2021/09/17 09:30:51;;;;;;;10.68;7.15;;;27.60;99.90;;;;;;5074476;28;20068;-72
2021/09/17 09:33:26;;;;;;;13.77;7.80;;;27.60;99.90;;;;;;5074562;28;20389;-73
2021/09/17 09:36:08;;;;;;;10.60;6.80;;;27.70;99.90;;;;;;5073006;28;20049;-72
2021/09/17 09:38:38;;;;;;;12.07;6.82;;;27.90;99.90;;;;;;5056718;28;20067;-73
2021/09/17 09:41:09;;;;;;;20.05;8.25;;;28.10;99.90;;;;;;5073034;28;20134;-73
2021/09/17 09:43:39;;;;;;;13.98;7.57;;;28.20;99.90;;;;;;5073161;28;20444;-73
2021/09/17 09:46:39;;;;;;;11.68;6.95;;;28.20;99.90;;;;;;5056202;28;20507;-73
2021/09/17 09:49:10;;;;;;;11.30;6.60;;;28.50;99.90;;;;;;5056940;28;20044;-73
2021/09/17 09:51:56;;;;;;;11.13;7.35;;;28.70;99.90;;;;;;5074216;28;20049;-72
2021/09/17 09:54:29;;;;;;;9.10;6.28;;;28.90;99.90;;;;;;5056267;28;20052;-70
2021/09/17 09:56:58;;;;;;;15.95;6.88;;;29.00;99.90;;;;;;5072637;28;20048;-71
2021/09/17 09:59:32;;;;;;;12.15;6.00;;;29.30;99.90;;;;;;5073897;28;20040;-73
2021/09/17 10:02:02;;;;;;;10.52;6.93;;;29.30;99.80;;;;;;5072650;28;20048;-67
2021/09/17 10:04:31;;;;;;;6.93;5.38;;;29.20;99.20;;;;;;5073767;28;20064;-66
2021/09/17 10:07:08;;;;;;;11.38;5.75;;;29.20;99.00;;;;;;5055901;28;20471;-66
2021/09/17 10:09:39;;;;;;;9.52;6.03;;;29.20;99.10;;;;;;5074001;28;20056;-66
2021/09/17 10:12:09;;;;;;;12.38;6.03;;;28.70;99.80;;;;;;5073790;28;20072;-66
2021/09/17 10:14:40;;;;;;;10.45;6.65;;;28.70;99.90;;;;;;5072967;28;20492;-66
2021/09/17 10:17:21;;;;;;;20.05;7.22;;;28.80;99.90;;;;;;5073796;28;20041;-66
2021/09/17 10:19:52;;;;;;;11.25;6.65;;;29.00;99.80;;;;;;5072726;28;20159;-66
2021/09/17 10:22:29;;;;;;;15.93;7.13;;;29.10;99.30;;;;;;5073573;28;20044;-66
2021/09/17 10:25:05;;;;;;;9.43;5.80;;;29.10;99.10;;;;;;5073442;28;20426;-66
2021/09/17 10:27:34;;;;;;;9.90;6.32;;;29.10;98.40;;;;;;5073531;28;20044;-67
2021/09/17 10:30:05;;;;;;;10.38;5.32;;;29.10;97.70;;;;;;5073568;28;20036;-66
2021/09/17 10:32:53;;;;;;;8.73;5.60;;;29.30;98.40;;;;;;5073584;28;20032;-66
2021/09/17 10:35:40;;;;;;;7.60;4.70;;;29.30;97.70;;;;;;5073813;28;20049;-66
2021/09/17 10:38:25;;;;;;;9.10;5.97;;;29.50;97.40;;;;;;5073344;28;20127;-66
2021/09/17 10:41:02;;;;;;;9.18;5.38;;;29.50;96.90;;;;;;5073666;28;20091;-66
2021/09/17 10:43:46;;;;;;;6.95;5.72;;;29.50;97.10;;;;;;5072313;28;20079;-66
2021/09/17 10:46:22;;;;;;;9.52;5.72;;;29.80;96.90;;;;;;5073401;28;20616;-66
2021/09/17 10:48:52;;;;;;;11.00;6.25;;;29.80;96.90;;;;;;5072484;28;20049;-66
2021/09/17 10:51:42;;;;;;;10.45;5.35;;;29.80;97.00;;;;;;5073419;28;20040;-66
2021/09/17 10:54:20;;;;;;;7.32;5.45;;;29.70;97.10;;;;;;5073327;28;20037;-66
2021/09/17 10:56:47;;;;;;;13.75;7.03;;;29.80;97.30;;;;;;5073507;28;20052;-66
2021/09/17 10:59:21;;;;;;;8.85;6.18;;;29.80;97.60;;;;;;5073311;28;20040;-66
2021/09/17 11:01:54;;;;;;;11.10;5.22;;;29.80;97.40;;;;;;5073478;28;20053;-66
2021/09/17 11:04:22;;;;;;;8.35;5.90;;;29.80;97.10;;;;;;5071949;28;20071;-66
2021/09/17 11:06:51;;;;;;;9.63;5.13;;;29.70;97.20;;;;;;5073364;28;20486;-66
2021/09/17 11:09:39;;;;;;;10.82;6.25;;;29.80;97.10;;;;;;5073284;28;20542;-67
2021/09/17 11:12:34;;;;;;;8.93;5.38;;;29.50;97.00;;;;;;5073229;28;20041;-66
2021/09/17 11:15:10;;;;;;;7.70;4.80;;;29.50;97.10;;;;;;5071250;28;20049;-67
2021/09/17 11:17:37;;;;;;;12.23;5.43;;;29.50;96.90;;;;;;5074410;28;20032;-66
2021/09/17 11:20:09;;;;;;;11.40;5.70;;;29.50;97.10;;;;;;5076837;28;20470;-66
2021/09/17 11:23:13;;;;;;;8.90;4.97;;;29.40;97.40;;;;;;5076916;28;20085;-66
2021/09/17 11:25:43;;;;;;;6.32;4.53;;;29.30;97.20;;;;;;5075707;28;20090;-66
2021/09/17 11:28:19;;;;;;;7.10;4.97;;;29.30;97.80;;;;;;5076783;28;20040;-66
2021/09/17 11:30:47;;;;;;;10.20;6.45;;;29.20;97.90;;;;;;5076831;28;20127;-66
2021/09/17 11:33:17;;;;;;;9.55;5.20;;;29.30;97.80;;;;;;5075464;28;20044;-66
2021/09/17 11:35:46;;;;;;;9.10;4.63;;;29.20;97.70;;;;;;5075325;28;20059;-66
2021/09/17 11:38:13;;;;;;;21.50;6.97;;;29.30;97.80;;;;;;5075451;28;20051;-66
2021/09/17 11:40:53;;;;;;;10.68;5.32;;;29.40;97.70;;;;;;5075466;28;20066;-66
2021/09/17 11:43:22;;;;;;;7.72;4.53;;;29.30;96.40;;;;;;5076758;28;20394;-66
2021/09/17 11:45:51;;;;;;;12.27;5.55;;;29.40;96.90;;;;;;5075254;28;20040;-66
2021/09/17 11:48:22;;;;;;;10.93;5.50;;;29.40;96.50;;;;;;5076519;28;20078;-66
2021/09/17 11:50:51;;;;;;;7.35;4.93;;;29.40;95.60;;;;;;5076613;28;20049;-66
2021/09/17 11:53:19;;;;;;;8.48;5.55;;;29.40;95.40;;;;;;5076492;28;20440;-66
2021/09/17 11:55:47;;;;;;;7.53;5.05;;;29.30;96.10;;;;;;5058564;28;20040;-66
2021/09/17 11:58:15;;;;;;;8.88;4.38;;;29.30;95.10;;;;;;5074751;28;20409;-66
2021/09/17 12:00:43;;;;;;;9.70;5.13;;;29.30;95.70;;;;;;5058639;28;20052;-66
2021/09/17 12:03:12;;;;;;;6.57;5.28;;;29.30;96.00;;;;;;5076333;28;20036;-66
2021/09/17 12:05:41;;;;;;;8.05;6.13;;;29.30;95.20;;;;;;5074996;28;20494;-66
2021/09/17 12:08:10;;;;;;;13.50;5.32;;;29.40;95.00;;;;;;5074976;28;20072;-67
2021/09/17 12:10:40;;;;;;;8.60;4.13;;;29.50;94.60;;;;;;5074975;28;20052;-66
2021/09/17 12:13:10;;;;;;;6.90;4.53;;;29.60;94.80;;;;;;5074435;28;20040;-66
2021/09/17 12:15:39;;;;;;;12.02;4.53;;;29.60;94.70;;;;;;5074610;28;20564;-66
2021/09/17 12:18:17;;;;;;;7.32;4.10;;;29.70;94.20;;;;;;5075727;28;20045;-66
2021/09/17 12:20:51;;;;;;;7.80;4.75;;;29.70;94.20;;;;;;5074873;28;20506;-66
2021/09/17 12:23:33;;;;;;;7.65;4.85;;;29.70;94.40;;;;;;5074518;28;20079;-66
2021/09/17 12:26:10;;;;;;;8.15;4.78;;;29.70;95.10;;;;;;5074864;28;20037;-66
2021/09/17 12:28:40;;;;;;;7.70;4.82;;;29.50;95.30;;;;;;5057494;28;20515;-66
2021/09/17 12:31:10;;;;;;;13.35;4.60;;;29.50;95.20;;;;;;5074380;28;20041;-66
2021/09/17 12:33:38;;;;;;;8.13;4.63;;;29.50;95.20;;;;;;5074327;28;20045;-66
2021/09/17 12:36:12;;;;;;;8.50;4.55;;;29.30;95.20;;;;;;5074098;28;20062;-66
2021/09/17 12:38:41;;;;;;;6.22;4.85;;;29.20;95.20;;;;;;5074150;28;20040;-66
2021/09/17 12:41:11;;;;;;;12.10;5.00;;;29.10;95.80;;;;;;5075232;28;20047;-67
2021/09/17 12:44:12;;;;;;;12.13;4.90;;;29.10;95.40;;;;;;5074162;28;20123;-66
2021/09/17 12:46:46;;;;;;;6.72;5.13;;;29.00;96.20;;;;;;5075483;28;20056;-66
2021/09/17 12:49:19;;;;;;;7.78;5.88;;;29.10;95.60;;;;;;5074138;28;20044;-66